createdAt,value
2022-08-25T00:01:20.509Z,1.17
2022-08-25T00:05:22.230Z,1.27
2022-08-25T00:09:27.380Z,1.15
2022-08-25T00:13:29.497Z,1.50
2022-08-25T00:17:31.054Z,0.90
2022-08-25T00:21:33.100Z,1.45
2022-08-25T00:25:34.791Z,1.52
2022-08-25T00:29:38.064Z,1.20
2022-08-25T00:33:39.575Z,1.20
2022-08-25T00:37:41.104Z,1.33
2022-08-25T00:41:43.479Z,0.90
2022-08-25T00:45:44.967Z,1.25
2022-08-25T00:49:51.647Z,1.30
2022-08-25T00:53:53.387Z,1.10
2022-08-25T00:58:17.937Z,0.93
2022-08-25T01:02:19.483Z,0.70
2022-08-25T01:06:21.323Z,1.02
2022-08-25T01:10:24.360Z,0.85
2022-08-25T01:14:27.727Z,1.00
2022-08-25T01:18:33.346Z,1.25
2022-08-25T01:22:34.804Z,0.77
2022-08-25T01:26:36.446Z,1.08
2022-08-25T01:30:38.449Z,1.08
2022-08-25T01:34:42.461Z,0.80
2022-08-25T01:38:43.900Z,1.30
2022-08-25T01:43:08.268Z,1.17
2022-08-25T01:47:10.855Z,1.30
2022-08-25T01:51:15.660Z,1.48
2022-08-25T01:55:17.536Z,1.33
2022-08-25T01:59:23.851Z,1.50
2022-08-25T02:03:26.684Z,1.65
2022-08-25T02:07:28.195Z,1.27
2022-08-25T02:11:29.728Z,1.40
2022-08-25T02:15:32.114Z,1.27
2022-08-25T02:19:33.854Z,1.55
2022-08-25T02:23:36.040Z,1.25
2022-08-25T02:27:37.505Z,1.33
2022-08-25T02:31:39.457Z,0.93
2022-08-25T02:35:41.050Z,1.27
2022-08-25T02:39:42.566Z,1.00
2022-08-25T02:43:45.124Z,1.27
2022-08-25T02:47:47.001Z,1.40
2022-08-25T02:51:48.487Z,1.50
2022-08-25T02:55:49.968Z,1.30
2022-08-25T02:59:51.720Z,1.10
2022-08-25T03:03:53.316Z,1.67
2022-08-25T03:07:56.156Z,1.42
2022-08-25T03:11:59.338Z,1.38
2022-08-25T03:16:03.955Z,1.45
2022-08-25T03:20:06.486Z,1.30
2022-08-25T03:24:08.344Z,1.23
2022-08-25T03:28:10.998Z,1.70
2022-08-25T03:32:12.494Z,1.30
2022-08-25T03:36:14.555Z,1.35
2022-08-25T03:40:17.603Z,1.58
2022-08-25T03:44:21.012Z,2.10
2022-08-25T03:48:22.455Z,1.42
2022-08-25T03:52:23.979Z,2.10
2022-08-25T03:56:27.296Z,1.83
2022-08-25T04:00:28.955Z,1.88
2022-08-25T04:04:31.032Z,1.75
2022-08-25T04:08:32.785Z,1.65
2022-08-25T04:12:34.654Z,1.58
2022-08-25T04:16:36.240Z,1.55
2022-08-25T04:20:38.192Z,1.30
2022-08-25T04:24:40.077Z,1.83
2022-08-25T04:28:42.250Z,1.85
2022-08-25T04:32:43.815Z,1.33
2022-08-25T04:36:45.564Z,1.80
2022-08-25T04:40:59.214Z,1.45
2022-08-25T04:45:01.934Z,1.65
2022-08-25T04:49:04.231Z,1.77
2022-08-25T04:53:05.711Z,1.98
2022-08-25T04:57:07.210Z,2.20
2022-08-25T05:01:15.723Z,2.05
2022-08-25T05:05:17.313Z,2.13
2022-08-25T05:09:19.854Z,1.73
2022-08-25T05:13:24.916Z,1.67
2022-08-25T05:17:27.923Z,2.05
2022-08-25T05:21:29.368Z,2.53
2022-08-25T05:25:32.525Z,2.63
2022-08-25T05:29:34.307Z,2.60
2022-08-25T05:33:37.098Z,2.25
2022-08-25T05:37:38.593Z,3.30
2022-08-25T05:41:40.584Z,2.20
2022-08-25T05:45:42.137Z,2.42
2022-08-25T05:49:43.683Z,2.20
2022-08-25T05:53:49.804Z,2.28
2022-08-25T05:57:51.280Z,3.15
2022-08-25T06:02:11.620Z,1.85
2022-08-25T06:06:13.385Z,2.55
2022-08-25T06:10:15.422Z,2.65
2022-08-25T06:14:17.104Z,2.65
2022-08-25T06:18:18.872Z,2.30
2022-08-25T06:22:21.442Z,2.72
2022-08-25T06:26:23.398Z,2.88
2022-08-25T06:30:28.563Z,3.08
2022-08-25T06:34:30.619Z,2.42
2022-08-25T06:38:32.291Z,2.40
2022-08-25T06:42:34.767Z,3.10
2022-08-25T06:46:37.230Z,2.92
2022-08-25T06:50:39.863Z,2.63
2022-08-25T06:54:41.427Z,2.47
2022-08-25T06:58:43.098Z,2.28
2022-08-25T07:02:44.662Z,3.22
2022-08-25T07:06:46.726Z,2.65
2022-08-25T07:10:48.329Z,2.90
2022-08-25T07:15:10.174Z,2.88
2022-08-25T07:19:11.854Z,3.45
2022-08-25T07:23:16.405Z,2.45
2022-08-25T07:27:17.868Z,3.08
2022-08-25T07:31:19.368Z,3.25
2022-08-25T07:35:24.068Z,3.10
2022-08-25T07:39:26.744Z,2.65
2022-08-25T07:43:30.653Z,3.35
2022-08-25T07:47:32.264Z,3.28
2022-08-25T07:51:34.604Z,2.88
2022-08-25T07:55:38.879Z,3.08
2022-08-25T07:59:42.060Z,3.20
2022-08-25T08:03:50.953Z,2.58
2022-08-25T08:07:55.091Z,2.50
2022-08-25T08:11:57.609Z,1.75
2022-08-25T08:15:59.114Z,2.78
2022-08-25T08:20:01.043Z,2.78
2022-08-25T08:24:10.740Z,2.15
2022-08-25T08:28:16.720Z,2.08
2022-08-25T08:32:18.517Z,1.60
2022-08-25T08:36:21.473Z,1.65
2022-08-25T08:40:29.017Z,2.30
2022-08-25T08:44:46.036Z,1.48
2022-08-25T08:49:06.145Z,2.15
2022-08-25T08:53:19.719Z,1.92
2022-08-25T08:57:28.100Z,1.65
2022-08-25T09:01:35.490Z,2.20
2022-08-25T09:05:48.490Z,1.70
2022-08-25T09:09:52.350Z,1.40
2022-08-25T09:14:15.543Z,2.17
2022-08-25T09:18:26.557Z,1.83
2022-08-25T09:22:52.098Z,1.50
2022-08-25T09:27:18.790Z,2.05
2022-08-25T09:31:31.777Z,1.90
2022-08-25T09:35:37.002Z,1.75
2022-08-25T09:39:39.124Z,2.20
2022-08-25T09:43:43.171Z,2.00
2022-08-25T09:47:45.861Z,2.08
2022-08-25T09:51:48.337Z,1.60
2022-08-25T09:56:04.563Z,1.60
2022-08-25T10:00:16.226Z,1.33
2022-08-25T10:04:40.117Z,1.85
2022-08-25T10:08:44.866Z,1.60
2022-08-25T10:12:51.363Z,2.25
2022-08-25T10:17:12.096Z,1.77
2022-08-25T10:21:18.909Z,1.85
2022-08-25T10:25:29.926Z,1.48
2022-08-25T10:29:49.310Z,2.10
2022-08-25T10:34:11.869Z,1.70
2022-08-25T10:38:37.527Z,1.98
2022-08-25T10:43:15.911Z,1.70
2022-08-25T10:47:35.809Z,2.03
2022-08-25T10:52:02.030Z,1.50
2022-08-25T10:56:24.890Z,1.75
2022-08-25T11:00:37.447Z,1.92
2022-08-25T11:04:48.816Z,2.30
2022-08-25T11:08:56.026Z,2.15
2022-08-25T11:13:01.510Z,1.45
2022-08-25T11:17:20.308Z,1.63
2022-08-25T11:21:28.531Z,2.22
2022-08-25T11:25:37.272Z,1.73
2022-08-25T11:29:39.689Z,2.08
2022-08-25T11:33:41.422Z,2.00
2022-08-25T11:38:05.888Z,2.42
2022-08-25T11:42:38.438Z,1.85
2022-08-25T11:46:47.647Z,1.50
2022-08-25T11:51:09.706Z,1.80
2022-08-25T11:55:40.371Z,1.80
2022-08-25T11:59:57.192Z,1.75
2022-08-25T12:04:44.151Z,2.05
2022-08-25T12:08:59.747Z,1.60
2022-08-25T12:13:08.040Z,1.58
2022-08-25T12:17:24.389Z,2.05
2022-08-25T12:21:32.430Z,2.15
2022-08-25T12:25:39.235Z,1.75
2022-08-25T12:29:50.539Z,1.33
2022-08-25T12:34:06.377Z,1.70
2022-08-25T12:38:13.633Z,2.15
2022-08-25T12:42:37.884Z,1.30
2022-08-25T12:46:43.276Z,2.13
2022-08-25T12:50:50.232Z,2.08
2022-08-25T12:55:00.360Z,2.05
2022-08-25T12:59:01.817Z,1.90
2022-08-25T13:03:45.471Z,1.98
2022-08-25T13:07:55.994Z,1.58
2022-08-25T13:12:16.272Z,2.30
2022-08-25T13:16:22.234Z,1.80
2022-08-25T13:20:29.105Z,1.70
2022-08-25T13:24:40.440Z,1.70
2022-08-25T13:28:50.497Z,1.52
2022-08-25T13:32:52.135Z,2.33
2022-08-25T13:37:12.764Z,1.77
2022-08-25T13:41:21.307Z,1.45
2022-08-25T13:45:34.658Z,1.83
2022-08-25T13:49:46.582Z,1.77
2022-08-25T13:54:02.745Z,1.77
2022-08-25T13:58:14.150Z,1.60
2022-08-25T14:02:41.970Z,1.73
2022-08-25T14:06:46.691Z,2.00
2022-08-25T14:10:48.159Z,1.70
2022-08-25T14:14:58.925Z,1.92
2022-08-25T14:19:04.451Z,2.03
2022-08-25T14:23:19.101Z,2.33
2022-08-25T14:27:21.724Z,1.48
2022-08-25T14:31:29.525Z,2.30
2022-08-25T14:35:31.662Z,2.30
2022-08-25T14:39:33.143Z,1.30
2022-08-25T14:43:34.783Z,1.98
2022-08-25T14:47:36.536Z,1.73
2022-08-25T14:51:43.372Z,1.70
2022-08-25T14:55:45.014Z,1.92
2022-08-25T14:59:46.617Z,2.13
2022-08-25T15:03:52.289Z,1.73
2022-08-25T15:08:13.540Z,1.23
2022-08-25T15:12:26.134Z,1.52
2022-08-25T15:16:42.473Z,2.17
2022-08-25T15:20:44.277Z,1.92
2022-08-25T15:24:45.788Z,2.10
2022-08-25T15:28:50.083Z,1.67
2022-08-25T15:32:51.963Z,1.88
2022-08-25T15:37:00.360Z,1.40
2022-08-25T15:41:02.174Z,1.50
2022-08-25T15:45:05.501Z,1.60
2022-08-25T15:49:07.908Z,2.05
2022-08-25T15:53:10.688Z,2.00
2022-08-25T15:57:16.844Z,1.33
2022-08-25T16:01:30.632Z,2.13
2022-08-25T16:05:32.219Z,1.67
2022-08-25T16:09:35.075Z,1.48
2022-08-25T16:13:36.526Z,1.40
2022-08-25T16:17:37.997Z,1.52
2022-08-25T16:21:47.537Z,1.45
2022-08-25T16:25:49.583Z,1.77
2022-08-25T16:29:53.441Z,2.40
2022-08-25T16:33:58.165Z,1.63
2022-08-25T16:37:59.989Z,1.90
2022-08-25T16:42:05.604Z,1.60
2022-08-25T16:46:10.162Z,1.77
2022-08-25T16:50:13.145Z,1.73
2022-08-25T16:54:33.418Z,1.88
2022-08-25T16:58:35.293Z,1.58
2022-08-25T17:02:38.394Z,1.50
2022-08-25T17:06:49.395Z,1.70
2022-08-25T17:10:53.498Z,1.15
2022-08-25T17:14:55.037Z,1.40
2022-08-25T17:18:58.721Z,1.50
2022-08-25T17:23:00.960Z,1.40
2022-08-25T17:27:02.407Z,2.13
2022-08-25T17:31:04.425Z,1.60
2022-08-25T17:35:06.716Z,2.08
2022-08-25T17:39:10.961Z,1.85
2022-08-25T17:43:12.456Z,1.75
2022-08-25T17:47:14.026Z,1.42
2022-08-25T17:51:15.830Z,1.70
2022-08-25T17:55:21.613Z,2.30
2022-08-25T17:59:23.081Z,1.17
2022-08-25T18:03:25.494Z,2.25
2022-08-25T18:07:27.139Z,1.80
2022-08-25T18:11:28.929Z,1.67
2022-08-25T18:15:33.872Z,1.33
2022-08-25T18:19:35.675Z,2.00
2022-08-25T18:23:37.246Z,1.75
2022-08-25T18:27:40.106Z,1.77
2022-08-25T18:31:42.396Z,1.17
2022-08-25T18:35:44.660Z,1.48
2022-08-25T18:40:04.871Z,1.80
2022-08-25T18:44:08.880Z,2.40
2022-08-25T18:48:12.265Z,2.08
2022-08-25T18:52:13.867Z,1.77
2022-08-25T18:56:15.689Z,1.85
2022-08-25T19:00:20.512Z,2.15
2022-08-25T19:04:28.380Z,1.95
2022-08-25T19:08:33.218Z,2.17
2022-08-25T19:12:36.704Z,2.00
2022-08-25T19:16:41.327Z,1.77
2022-08-25T19:20:43.047Z,1.27
2022-08-25T19:24:45.557Z,1.35
2022-08-25T19:28:48.956Z,1.73
2022-08-25T19:32:51.785Z,1.98
2022-08-25T19:36:54.799Z,1.15
2022-08-25T19:40:56.722Z,1.83
2022-08-25T19:44:59.517Z,1.13
2022-08-25T19:49:08.430Z,1.38
2022-08-25T19:57:28.486Z,1.42
2022-08-25T20:01:37.099Z,2.00
2022-08-25T20:05:42.084Z,1.63
2022-08-25T20:09:45.197Z,1.88
2022-08-25T20:13:47.012Z,1.85
2022-08-25T20:17:50.951Z,1.73
2022-08-25T20:21:58.914Z,1.38
2022-08-25T20:26:00.384Z,1.70
2022-08-25T20:30:05.415Z,1.35
2022-08-25T20:34:07.132Z,1.80
2022-08-25T20:38:08.716Z,1.80
2022-08-25T20:42:10.451Z,1.70
2022-08-25T20:46:12.171Z,2.03
2022-08-25T20:50:13.726Z,1.63
2022-08-25T20:54:16.876Z,1.95
2022-08-25T20:58:18.397Z,1.70
2022-08-25T21:02:20.799Z,1.77
2022-08-25T21:06:22.309Z,1.63
2022-08-25T21:10:24.061Z,1.65
2022-08-25T21:14:26.335Z,1.55
2022-08-25T21:18:31.533Z,2.05
2022-08-25T21:22:35.293Z,1.48
2022-08-25T21:26:37.296Z,1.73
2022-08-25T21:30:49.149Z,1.42
2022-08-25T21:34:54.444Z,1.63
2022-08-25T21:38:58.527Z,1.50
2022-08-25T21:43:01.883Z,1.58
2022-08-25T21:47:04.099Z,1.95
2022-08-25T21:51:09.538Z,1.58
2022-08-25T21:55:16.093Z,1.40
2022-08-25T21:59:21.938Z,1.55
2022-08-25T22:03:23.403Z,1.80
2022-08-25T22:07:25.032Z,2.30
2022-08-25T22:11:28.156Z,1.20
2022-08-25T22:15:35.344Z,1.40
2022-08-25T22:19:36.813Z,2.15
2022-08-25T22:23:44.112Z,1.90
2022-08-25T22:27:46.242Z,1.67
2022-08-25T22:31:51.101Z,2.35
2022-08-25T22:35:56.000Z,2.35
2022-08-25T22:40:02.399Z,2.30
2022-08-25T22:44:05.932Z,1.60
2022-08-25T22:48:07.568Z,1.95
2022-08-25T22:52:11.424Z,2.30
2022-08-25T22:56:17.237Z,2.78
2022-08-25T23:00:19.282Z,2.88
2022-08-25T23:04:21.244Z,3.03
2022-08-25T23:08:39.002Z,2.85
2022-08-25T23:12:43.903Z,3.50
2022-08-25T23:16:45.785Z,3.08
2022-08-25T23:21:05.734Z,2.88
2022-08-25T23:25:07.538Z,3.35
2022-08-25T23:29:17.795Z,3.05
2022-08-25T23:33:21.427Z,3.08
2022-08-25T23:37:22.911Z,3.03
2022-08-25T23:41:25.508Z,2.63
2022-08-25T23:45:27.023Z,3.05
2022-08-25T23:49:28.826Z,2.42
2022-08-25T23:53:31.604Z,2.63
2022-08-25T23:57:33.048Z,2.38
